Time;durP1;ratioP1;P1;durP2;ratioP2;P2;SDS_P1;SDS_P2;PMS_P1;PMS_P2;Temp;Humidity;BMP_temperature;BMP_pressure;BME280_temperature;BME280_humidity;BME280_pressure;Samples;Min_cycle;Max_cycle;Signal;HPM_P1;HPM_P2
2022/04/30 00:00:03;;;;;;;29.98;23.35;;;;;;;;;;515844;28;1547;-81
2022/04/30 00:00:19;;;;;;;28.90;23.10;;;;;;;;;;517564;28;1988;-81
2022/04/30 00:00:35;;;;;;;29.88;23.50;;;;;;;;;;517995;28;1720;-81
2022/04/30 00:00:50;;;;;;;30.05;23.80;;;;;;;;;;516441;28;1432;-80
2022/04/30 00:01:06;;;;;;;30.20;23.83;;;;;;;;;;516668;28;1600;-81
2022/04/30 00:01:21;;;;;;;30.92;23.63;;;;;;;;;;516401;28;1607;-81
2022/04/30 00:01:36;;;;;;;29.40;23.50;;;;;;;;;;515903;28;1416;-81
2022/04/30 00:01:52;;;;;;;28.60;23.35;;;;;;;;;;513994;28;1607;-81
2022/04/30 00:02:09;;;;;;;31.10;23.30;;;;;;;;;;514118;28;1457;-81
2022/04/30 00:02:25;;;;;;;30.20;23.05;;;;;;;;;;512942;28;1345;-81
2022/04/30 00:02:40;;;;;;;28.27;23.27;;;;;;;;;;513775;28;1401;-80
2022/04/30 00:03:00;;;;;;;29.23;23.93;;;;;;;;;;516830;28;1423;-81
2022/04/30 00:03:15;;;;;;;29.00;23.83;;;;;;;;;;516661;28;1554;-81
2022/04/30 00:03:31;;;;;;;29.92;24.00;;;;;;;;;;516588;28;1546;-81
2022/04/30 00:03:47;;;;;;;29.77;24.00;;;;;;;;;;516652;28;1508;-81
2022/04/30 00:04:02;;;;;;;29.90;23.42;;;;;;;;;;515121;28;1579;-81
2022/04/30 00:04:18;;;;;;;30.30;24.05;;;;;;;;;;513698;28;1548;-81
2022/04/30 00:04:35;;;;;;;31.03;24.80;;;;;;;;;;513457;28;1591;-81
2022/04/30 00:04:50;;;;;;;31.38;24.60;;;;;;;;;;514596;28;1544;-81
2022/04/30 00:05:06;;;;;;;32.17;24.27;;;;;;;;;;512199;28;1477;-81
2022/04/30 00:05:23;;;;;;;31.50;24.30;;;;;;;;;;512469;28;1677;-81
2022/04/30 00:05:39;;;;;;;29.98;24.48;;;;;;;;;;512266;28;1565;-81
2022/04/30 00:05:55;;;;;;;29.05;24.25;;;;;;;;;;513691;28;1476;-81
2022/04/30 00:06:11;;;;;;;29.00;23.88;;;;;;;;;;514584;28;1640;-81
2022/04/30 00:06:26;;;;;;;30.20;24.17;;;;;;;;;;514872;28;1487;-81
2022/04/30 00:06:42;;;;;;;30.52;25.15;;;;;;;;;;515213;28;1456;-81
2022/04/30 00:06:57;;;;;;;32.03;25.47;;;;;;;;;;515076;28;1516;-81
2022/04/30 00:07:15;;;;;;;33.65;25.45;;;;;;;;;;516396;28;1396;-81
2022/04/30 00:07:30;;;;;;;32.75;25.70;;;;;;;;;;516553;28;1508;-81
2022/04/30 00:07:45;;;;;;;30.23;25.03;;;;;;;;;;514353;28;2007;-81
2022/04/30 00:08:05;;;;;;;30.17;24.73;;;;;;;;;;512815;28;1524;-81
2022/04/30 00:08:21;;;;;;;29.63;25.02;;;;;;;;;;511984;28;1993;-81
2022/04/30 00:08:37;;;;;;;30.38;24.92;;;;;;;;;;512183;28;1434;-81
2022/04/30 00:08:52;;;;;;;32.10;25.33;;;;;;;;;;511882;28;1649;-81
2022/04/30 00:09:07;;;;;;;33.50;25.77;;;;;;;;;;512810;28;1464;-81
2022/04/30 00:09:22;;;;;;;34.25;25.80;;;;;;;;;;510575;29;1513;-81
2022/04/30 00:09:38;;;;;;;33.63;25.50;;;;;;;;;;511526;28;1627;-81
2022/04/30 00:09:54;;;;;;;32.40;25.52;;;;;;;;;;511138;28;1476;-81
2022/04/30 00:10:09;;;;;;;32.53;25.40;;;;;;;;;;514509;28;1576;-81
2022/04/30 00:10:25;;;;;;;33.43;25.87;;;;;;;;;;514998;28;1635;-81
2022/04/30 00:10:40;;;;;;;33.47;26.52;;;;;;;;;;514855;28;1452;-81
2022/04/30 00:10:56;;;;;;;34.30;26.40;;;;;;;;;;512027;28;1703;-81
2022/04/30 00:11:11;;;;;;;32.80;25.90;;;;;;;;;;511078;28;1426;-81
2022/04/30 00:11:26;;;;;;;30.43;25.60;;;;;;;;;;510528;28;1664;-81
2022/04/30 00:11:42;;;;;;;30.93;25.23;;;;;;;;;;511470;28;1610;-81
2022/04/30 00:11:58;;;;;;;33.77;25.73;;;;;;;;;;512375;28;1649;-81
2022/04/30 00:12:15;;;;;;;32.53;25.90;;;;;;;;;;510725;29;1450;-81
2022/04/30 00:12:31;;;;;;;31.77;26.08;;;;;;;;;;510439;29;1712;-81
2022/04/30 00:12:47;;;;;;;32.08;25.88;;;;;;;;;;511076;28;1541;-81
2022/04/30 00:13:11;;;;;;;31.38;25.55;;;;;;;;;;513897;28;1619;-81
2022/04/30 00:13:27;;;;;;;29.85;25.42;;;;;;;;;;516626;28;1433;-81
2022/04/30 00:13:42;;;;;;;30.10;25.13;;;;;;;;;;516254;28;1556;-81
2022/04/30 00:13:58;;;;;;;30.47;25.10;;;;;;;;;;514763;28;1417;-81
2022/04/30 00:14:13;;;;;;;29.38;25.45;;;;;;;;;;512822;28;1527;-81
2022/04/30 00:14:29;;;;;;;30.07;25.77;;;;;;;;;;512730;28;1907;-81
2022/04/30 00:14:46;;;;;;;29.95;25.60;;;;;;;;;;512376;28;1678;-81
2022/04/30 00:15:03;;;;;;;30.63;25.85;;;;;;;;;;512472;28;1640;-81
2022/04/30 00:15:20;;;;;;;30.98;25.75;;;;;;;;;;513070;28;1784;-81
2022/04/30 00:15:36;;;;;;;32.28;26.25;;;;;;;;;;512869;28;1731;-81
2022/04/30 00:15:51;;;;;;;33.42;26.65;;;;;;;;;;513216;28;1484;-81
2022/04/30 00:16:07;;;;;;;32.70;26.23;;;;;;;;;;514340;28;1957;-81
2022/04/30 00:16:22;;;;;;;32.63;26.93;;;;;;;;;;514545;28;1531;-81
2022/04/30 00:16:38;;;;;;;32.83;26.73;;;;;;;;;;512749;28;1564;-81
2022/04/30 00:16:53;;;;;;;33.60;26.52;;;;;;;;;;513170;28;1589;-81
2022/04/30 00:17:09;;;;;;;34.17;27.23;;;;;;;;;;510604;29;1668;-81
2022/04/30 00:17:24;;;;;;;35.10;27.48;;;;;;;;;;510703;29;1607;-82
2022/04/30 00:17:40;;;;;;;35.00;27.33;;;;;;;;;;512815;28;2386;-81
2022/04/30 00:17:56;;;;;;;33.13;27.30;;;;;;;;;;514847;28;1602;-81
2022/04/30 00:18:11;;;;;;;34.45;27.55;;;;;;;;;;515284;28;1579;-81
2022/04/30 00:18:27;;;;;;;35.27;27.57;;;;;;;;;;515113;28;1626;-81
2022/04/30 00:18:42;;;;;;;34.90;27.20;;;;;;;;;;516801;28;1400;-81
2022/04/30 00:18:59;;;;;;;33.67;26.87;;;;;;;;;;516528;28;1689;-81
2022/04/30 00:19:15;;;;;;;32.92;27.23;;;;;;;;;;519228;28;1347;-81
2022/04/30 00:19:30;;;;;;;34.75;27.92;;;;;;;;;;518303;28;1524;-81
2022/04/30 00:19:46;;;;;;;34.95;27.77;;;;;;;;;;514593;28;1440;-81
2022/04/30 00:20:03;;;;;;;33.80;27.20;;;;;;;;;;514714;28;1778;-81
2022/04/30 00:20:18;;;;;;;33.60;27.45;;;;;;;;;;513742;28;1554;-81
2022/04/30 00:20:36;;;;;;;34.20;27.57;;;;;;;;;;513994;28;1640;-81
2022/04/30 00:20:51;;;;;;;33.47;26.80;;;;;;;;;;514610;28;1568;-81
2022/04/30 00:21:06;;;;;;;33.63;27.10;;;;;;;;;;514109;28;1673;-81
2022/04/30 00:21:22;;;;;;;35.80;27.60;;;;;;;;;;514789;28;1782;-81
2022/04/30 00:21:37;;;;;;;35.10;27.45;;;;;;;;;;515398;28;1460;-81
2022/04/30 00:21:52;;;;;;;33.13;27.77;;;;;;;;;;514588;28;1463;-81
2022/04/30 00:22:09;;;;;;;34.90;28.37;;;;;;;;;;514669;28;1632;-81
2022/04/30 00:22:25;;;;;;;35.05;28.02;;;;;;;;;;514614;28;1588;-81
2022/04/30 00:22:40;;;;;;;33.25;28.00;;;;;;;;;;514052;28;1811;-81
2022/04/30 00:22:56;;;;;;;34.30;28.70;;;;;;;;;;514672;28;1588;-81
2022/04/30 00:23:19;;;;;;;36.08;29.27;;;;;;;;;;514107;28;1536;-81
2022/04/30 00:23:34;;;;;;;34.42;28.02;;;;;;;;;;512155;28;1489;-81
2022/04/30 00:23:49;;;;;;;35.00;28.20;;;;;;;;;;513871;28;1498;-81
2022/04/30 00:24:05;;;;;;;36.47;28.27;;;;;;;;;;513872;28;1350;-81
2022/04/30 00:24:21;;;;;;;36.67;28.55;;;;;;;;;;514237;28;1679;-81
2022/04/30 00:24:38;;;;;;;37.25;29.52;;;;;;;;;;514391;28;2045;-81
2022/04/30 00:24:53;;;;;;;38.95;29.70;;;;;;;;;;512492;28;1633;-81
2022/04/30 00:25:09;;;;;;;39.17;29.13;;;;;;;;;;512251;28;1620;-81
2022/04/30 00:25:24;;;;;;;39.47;29.55;;;;;;;;;;512945;28;1432;-82
2022/04/30 00:25:39;;;;;;;38.83;29.67;;;;;;;;;;512305;28;1729;-81
2022/04/30 00:25:55;;;;;;;37.42;29.50;;;;;;;;;;513317;28;1556;-81
2022/04/30 00:26:11;;;;;;;35.17;28.87;;;;;;;;;;512150;28;1574;-81
2022/04/30 00:26:26;;;;;;;34.95;28.38;;;;;;;;;;514351;28;1532;-81
2022/04/30 00:26:41;;;;;;;36.40;29.10;;;;;;;;;;512295;28;1580;-81
2022/04/30 00:26:59;;;;;;;37.28;29.95;;;;;;;;;;512949;28;1509;-81
2022/04/30 00:27:15;;;;;;;36.80;29.83;;;;;;;;;;515007;28;1692;-81
2022/04/30 00:27:31;;;;;;;36.92;29.67;;;;;;;;;;512033;28;1575;-81
2022/04/30 00:27:47;;;;;;;36.13;29.27;;;;;;;;;;512926;28;1531;-82
2022/04/30 00:28:03;;;;;;;38.53;30.02;;;;;;;;;;512402;28;1682;-81
2022/04/30 00:28:21;;;;;;;38.20;30.10;;;;;;;;;;512460;28;1395;-81
2022/04/30 00:28:37;;;;;;;36.27;29.13;;;;;;;;;;514015;28;1602;-81
2022/04/30 00:28:52;;;;;;;38.83;30.13;;;;;;;;;;515021;28;1500;-81
2022/04/30 00:29:08;;;;;;;39.10;30.80;;;;;;;;;;516721;28;1439;-81
2022/04/30 00:29:23;;;;;;;37.97;30.48;;;;;;;;;;516361;28;1591;-81
2022/04/30 00:29:38;;;;;;;37.17;30.50;;;;;;;;;;516916;28;1648;-81
2022/04/30 00:29:54;;;;;;;36.35;30.13;;;;;;;;;;516210;28;1753;-81
2022/04/30 00:30:10;;;;;;;37.33;29.53;;;;;;;;;;517110;28;1455;-81
2022/04/30 00:30:25;;;;;;;38.80;29.67;;;;;;;;;;518429;28;1733;-81
2022/04/30 00:30:43;;;;;;;38.67;30.33;;;;;;;;;;516707;28;1693;-81
2022/04/30 00:30:59;;;;;;;36.60;29.98;;;;;;;;;;516898;28;1558;-81
2022/04/30 00:31:14;;;;;;;37.80;30.65;;;;;;;;;;516014;28;1637;-81
2022/04/30 00:31:29;;;;;;;40.40;31.33;;;;;;;;;;516656;28;1404;-81
2022/04/30 00:31:45;;;;;;;39.53;31.23;;;;;;;;;;516189;28;1678;-81
2022/04/30 00:32:02;;;;;;;39.70;31.40;;;;;;;;;;516735;28;1419;-81
2022/04/30 00:32:17;;;;;;;38.67;31.30;;;;;;;;;;516770;28;1523;-81
2022/04/30 00:32:33;;;;;;;38.97;30.85;;;;;;;;;;514197;28;1645;-81
2022/04/30 00:32:48;;;;;;;38.83;30.77;;;;;;;;;;512493;28;1653;-81
2022/04/30 00:33:09;;;;;;;36.30;30.23;;;;;;;;;;512155;28;1587;-81
2022/04/30 00:33:25;;;;;;;37.47;30.20;;;;;;;;;;512761;28;1542;-81
2022/04/30 00:33:40;;;;;;;37.17;30.95;;;;;;;;;;512113;28;1569;-81
2022/04/30 00:33:56;;;;;;;41.90;31.67;;;;;;;;;;513334;28;1947;-81
2022/04/30 00:34:11;;;;;;;42.15;31.30;;;;;;;;;;512282;28;1533;-81
2022/04/30 00:34:27;;;;;;;39.13;31.30;;;;;;;;;;512548;28;1918;-81
2022/04/30 00:34:42;;;;;;;39.20;31.90;;;;;;;;;;511204;28;1466;-81
2022/04/30 00:34:58;;;;;;;39.78;31.92;;;;;;;;;;514779;28;1547;-81
2022/04/30 00:35:14;;;;;;;40.33;31.80;;;;;;;;;;513998;28;1440;-82
2022/04/30 00:35:30;;;;;;;40.10;31.40;;;;;;;;;;515309;28;1424;-82
2022/04/30 00:35:46;;;;;;;38.25;30.77;;;;;;;;;;516704;28;1599;-81
2022/04/30 00:36:02;;;;;;;37.60;29.97;;;;;;;;;;517327;28;1543;-81
2022/04/30 00:36:17;;;;;;;38.70;30.00;;;;;;;;;;516482;28;1619;-81
2022/04/30 00:36:32;;;;;;;39.67;31.33;;;;;;;;;;514345;28;1454;-81
2022/04/30 00:36:48;;;;;;;39.97;31.83;;;;;;;;;;511362;28;1608;-81
2022/04/30 00:37:03;;;;;;;39.92;31.50;;;;;;;;;;511105;28;1363;-81
2022/04/30 00:37:19;;;;;;;39.60;31.87;;;;;;;;;;510641;29;1617;-81
2022/04/30 00:37:34;;;;;;;38.90;31.57;;;;;;;;;;508759;29;1411;-81
2022/04/30 00:37:50;;;;;;;40.13;30.98;;;;;;;;;;508483;29;1656;-81
2022/04/30 00:38:06;;;;;;;39.23;30.97;;;;;;;;;;510555;28;1382;-81
2022/04/30 00:38:21;;;;;;;37.35;31.38;;;;;;;;;;512432;28;1391;-81
2022/04/30 00:38:36;;;;;;;36.97;31.67;;;;;;;;;;513122;28;1501;-81
2022/04/30 00:38:52;;;;;;;38.10;31.43;;;;;;;;;;512531;28;1670;-81
2022/04/30 00:39:07;;;;;;;37.72;31.48;;;;;;;;;;512252;28;1588;-81
2022/04/30 00:39:23;;;;;;;35.40;31.03;;;;;;;;;;511869;28;1831;-81
2022/04/30 00:39:38;;;;;;;36.57;30.57;;;;;;;;;;512173;28;1473;-81
2022/04/30 00:39:53;;;;;;;38.38;30.80;;;;;;;;;;512565;28;1631;-81
2022/04/30 00:40:10;;;;;;;38.43;31.20;;;;;;;;;;512730;28;1461;-81
2022/04/30 00:40:25;;;;;;;40.10;31.70;;;;;;;;;;514561;28;1649;-81
2022/04/30 00:40:42;;;;;;;38.30;30.98;;;;;;;;;;514939;28;1483;-82
2022/04/30 00:40:58;;;;;;;39.15;31.50;;;;;;;;;;516874;28;1329;-82
2022/04/30 00:41:14;;;;;;;41.80;32.08;;;;;;;;;;515460;28;1449;-81
2022/04/30 00:41:32;;;;;;;41.55;32.88;;;;;;;;;;516620;28;1631;-81
2022/04/30 00:41:48;;;;;;;42.45;33.20;;;;;;;;;;514083;28;1505;-81
2022/04/30 00:42:03;;;;;;;41.27;33.13;;;;;;;;;;514098;28;1713;-81
2022/04/30 00:42:19;;;;;;;40.50;33.57;;;;;;;;;;512665;28;1524;-81
2022/04/30 00:42:35;;;;;;;39.63;32.65;;;;;;;;;;513531;28;1939;-81
2022/04/30 00:42:50;;;;;;;40.27;32.40;;;;;;;;;;512775;28;1456;-81
2022/04/30 00:43:05;;;;;;;41.78;32.72;;;;;;;;;;511723;28;1522;-81
2022/04/30 00:43:21;;;;;;;41.67;32.50;;;;;;;;;;508590;29;1424;-81
2022/04/30 00:43:48;;;;;;;41.47;32.70;;;;;;;;;;508781;29;1592;-81
2022/04/30 00:44:03;;;;;;;40.63;32.90;;;;;;;;;;512537;28;1449;-81
2022/04/30 00:44:20;;;;;;;40.80;32.37;;;;;;;;;;513767;28;1843;-81
2022/04/30 00:44:35;;;;;;;39.60;31.85;;;;;;;;;;516194;28;1480;-81
2022/04/30 00:44:50;;;;;;;38.88;31.67;;;;;;;;;;513516;28;1537;-81
2022/04/30 00:45:06;;;;;;;40.57;32.03;;;;;;;;;;514808;28;1346;-81
2022/04/30 00:45:21;;;;;;;40.20;32.15;;;;;;;;;;516278;28;1736;-81
2022/04/30 00:45:37;;;;;;;39.37;32.07;;;;;;;;;;514314;28;1429;-81
2022/04/30 00:45:52;;;;;;;39.00;32.07;;;;;;;;;;514450;28;1723;-81
2022/04/30 00:46:11;;;;;;;38.53;31.52;;;;;;;;;;514650;28;1607;-81
2022/04/30 00:46:27;;;;;;;37.25;31.35;;;;;;;;;;514356;28;1476;-82
2022/04/30 00:46:43;;;;;;;38.30;32.22;;;;;;;;;;511641;28;1441;-81
2022/04/30 00:46:58;;;;;;;39.65;32.65;;;;;;;;;;511590;28;1638;-81
2022/04/30 00:47:18;;;;;;;39.87;32.50;;;;;;;;;;512767;28;1791;-82
2022/04/30 00:47:34;;;;;;;40.70;32.85;;;;;;;;;;515719;28;1470;-81
2022/04/30 00:47:50;;;;;;;39.53;32.40;;;;;;;;;;514349;28;1691;-81
2022/04/30 00:48:07;;;;;;;41.42;32.95;;;;;;;;;;512315;28;1381;-81
2022/04/30 00:48:22;;;;;;;42.17;33.20;;;;;;;;;;512290;28;1401;-81
2022/04/30 00:48:38;;;;;;;40.57;32.67;;;;;;;;;;512607;28;1706;-81
2022/04/30 00:48:53;;;;;;;38.83;32.63;;;;;;;;;;514901;28;1417;-81
2022/04/30 00:49:09;;;;;;;39.97;32.80;;;;;;;;;;514726;28;1685;-81
2022/04/30 00:49:24;;;;;;;40.55;32.55;;;;;;;;;;514388;28;1734;-82
2022/04/30 00:49:40;;;;;;;41.07;32.50;;;;;;;;;;514086;28;1740;-81
2022/04/30 00:49:55;;;;;;;39.58;32.28;;;;;;;;;;514272;28;1525;-81
2022/04/30 00:50:15;;;;;;;39.40;31.97;;;;;;;;;;514813;28;1630;-81
2022/04/30 00:50:36;;;;;;;39.63;31.85;;;;;;;;;;517396;28;1835;-81
2022/04/30 00:50:53;;;;;;;38.83;32.50;;;;;;;;;;518696;28;1434;-81
2022/04/30 00:51:13;;;;;;;38.35;32.53;;;;;;;;;;518821;28;1490;-81
2022/04/30 00:51:29;;;;;;;39.50;33.10;;;;;;;;;;518567;28;1415;-81
2022/04/30 00:51:44;;;;;;;40.57;33.27;;;;;;;;;;519107;28;1904;-81
2022/04/30 00:52:02;;;;;;;40.85;33.33;;;;;;;;;;518615;28;1415;-81
2022/04/30 00:52:21;;;;;;;40.13;33.35;;;;;;;;;;518445;28;1776;-81
2022/04/30 00:52:37;;;;;;;42.30;33.10;;;;;;;;;;518291;28;1414;-81
2022/04/30 00:52:56;;;;;;;42.00;33.17;;;;;;;;;;518780;28;1729;-81
2022/04/30 00:53:15;;;;;;;41.25;32.88;;;;;;;;;;518683;28;1566;-81
2022/04/30 00:53:32;;;;;;;40.92;33.33;;;;;;;;;;518736;28;1534;-81
2022/04/30 00:53:51;;;;;;;40.58;33.63;;;;;;;;;;518529;28;1725;-81
2022/04/30 00:54:07;;;;;;;40.83;33.40;;;;;;;;;;519063;28;1765;-81
2022/04/30 00:54:24;;;;;;;40.65;33.42;;;;;;;;;;516298;28;1882;-81
2022/04/30 00:54:41;;;;;;;41.22;34.28;;;;;;;;;;514044;28;1680;-81
2022/04/30 00:55:02;;;;;;;43.58;35.13;;;;;;;;;;514490;28;2036;-82
2022/04/30 00:55:22;;;;;;;44.05;34.50;;;;;;;;;;514053;28;1595;-81
2022/04/30 00:55:42;;;;;;;42.10;33.45;;;;;;;;;;514460;28;1540;-81
2022/04/30 00:56:00;;;;;;;40.47;32.55;;;;;;;;;;514433;28;1555;-81
2022/04/30 00:56:21;;;;;;;40.63;32.83;;;;;;;;;;514474;28;1508;-81
2022/04/30 00:56:44;;;;;;;39.78;33.08;;;;;;;;;;515384;28;1428;-81
2022/04/30 00:57:02;;;;;;;39.83;32.25;;;;;;;;;;514314;28;1423;-82
2022/04/30 00:57:23;;;;;;;40.70;32.17;;;;;;;;;;514529;28;1889;-81
2022/04/30 00:57:43;;;;;;;40.33;33.17;;;;;;;;;;514347;28;1480;-81
2022/04/30 00:58:02;;;;;;;40.25;32.97;;;;;;;;;;514721;28;1567;-81
2022/04/30 00:58:21;;;;;;;39.63;32.05;;;;;;;;;;512405;28;1433;-81
2022/04/30 00:58:38;;;;;;;38.33;31.88;;;;;;;;;;511846;28;1595;-81
2022/04/30 00:58:56;;;;;;;38.63;31.92;;;;;;;;;;512775;28;1540;-81
2022/04/30 00:59:17;;;;;;;38.97;32.88;;;;;;;;;;511542;28;1442;-81
2022/04/30 00:59:32;;;;;;;39.45;32.55;;;;;;;;;;512279;28;1444;-81
2022/04/30 00:59:53;;;;;;;40.20;32.58;;;;;;;;;;512495;28;1650;-81
2022/04/30 01:00:10;;;;;;;41.08;33.17;;;;;;;;;;510942;28;1442;-81
2022/04/30 01:00:27;;;;;;;42.30;33.47;;;;;;;;;;512858;28;1962;-81
2022/04/30 01:00:44;;;;;;;40.55;33.25;;;;;;;;;;512960;28;1480;-81
2022/04/30 01:01:00;;;;;;;40.33;33.15;;;;;;;;;;513817;28;1571;-81
2022/04/30 01:01:18;;;;;;;40.35;33.38;;;;;;;;;;514963;28;1567;-81
2022/04/30 01:01:35;;;;;;;39.42;32.80;;;;;;;;;;515696;28;1789;-81
2022/04/30 01:01:50;;;;;;;39.25;32.20;;;;;;;;;;517466;28;1590;-81
2022/04/30 01:02:09;;;;;;;39.63;33.03;;;;;;;;;;517741;28;1475;-81
2022/04/30 01:02:29;;;;;;;39.95;33.25;;;;;;;;;;515001;28;1506;-81
2022/04/30 01:02:44;;;;;;;40.92;33.10;;;;;;;;;;516472;28;1464;-81
2022/04/30 01:03:00;;;;;;;40.00;32.87;;;;;;;;;;516194;28;1799;-81
2022/04/30 01:03:15;;;;;;;41.83;33.83;;;;;;;;;;516661;28;1672;-81
2022/04/30 01:03:31;;;;;;;43.80;34.50;;;;;;;;;;516556;28;1788;-82
2022/04/30 01:03:46;;;;;;;42.93;34.07;;;;;;;;;;516047;28;1590;-81
2022/04/30 01:04:02;;;;;;;41.30;33.40;;;;;;;;;;517021;28;1448;-81
2022/04/30 01:04:21;;;;;;;40.78;32.50;;;;;;;;;;517562;28;1763;-81
2022/04/30 01:04:36;;;;;;;42.47;33.28;;;;;;;;;;518421;28;1630;-81
2022/04/30 01:04:53;;;;;;;40.63;33.10;;;;;;;;;;516603;28;1804;-81
2022/04/30 01:05:10;;;;;;;39.75;32.75;;;;;;;;;;516443;28;1574;-81
2022/04/30 01:05:25;;;;;;;41.45;33.33;;;;;;;;;;516067;28;1557;-81
2022/04/30 01:05:41;;;;;;;41.42;33.25;;;;;;;;;;516614;28;1493;-81
2022/04/30 01:05:59;;;;;;;41.92;32.95;;;;;;;;;;516010;28;1554;-81
2022/04/30 01:06:15;;;;;;;43.97;33.30;;;;;;;;;;516032;28;1432;-81
2022/04/30 01:07:07;;;;;;;42.55;33.95;;;;;;;;;;516386;28;1415;-81
2022/04/30 01:07:23;;;;;;;43.67;33.95;;;;;;;;;;508648;28;1701;-81
2022/04/30 01:07:40;;;;;;;41.83;33.88;;;;;;;;;;505951;29;1748;-81
2022/04/30 01:07:55;;;;;;;41.35;33.50;;;;;;;;;;505974;29;1488;-81
2022/04/30 01:08:11;;;;;;;40.90;32.97;;;;;;;;;;506976;29;2156;-81
2022/04/30 01:08:30;;;;;;;41.58;33.28;;;;;;;;;;507330;29;1435;-81
2022/04/30 01:08:45;;;;;;;40.90;33.72;;;;;;;;;;506571;29;1510;-81
2022/04/30 01:09:01;;;;;;;40.60;33.43;;;;;;;;;;506193;29;1640;-81
2022/04/30 01:09:18;;;;;;;41.15;33.00;;;;;;;;;;506362;29;1468;-81
2022/04/30 01:09:36;;;;;;;41.47;33.65;;;;;;;;;;505475;29;1641;-81
2022/04/30 01:09:53;;;;;;;42.13;33.72;;;;;;;;;;507471;29;1869;-81
2022/04/30 01:10:09;;;;;;;42.78;34.03;;;;;;;;;;511304;28;1553;-81
2022/04/30 01:10:25;;;;;;;41.00;33.28;;;;;;;;;;514482;28;1617;-81
2022/04/30 01:10:40;;;;;;;41.58;33.15;;;;;;;;;;516266;28;1389;-81
2022/04/30 01:11:00;;;;;;;42.57;33.30;;;;;;;;;;516675;28;1559;-81
2022/04/30 01:11:16;;;;;;;42.53;33.38;;;;;;;;;;516180;28;1428;-81
2022/04/30 01:11:34;;;;;;;42.72;34.80;;;;;;;;;;514387;28;1559;-81
2022/04/30 01:12:11;;;;;;;40.85;34.30;;;;;;;;;;512377;28;1757;-82
2022/04/30 01:12:27;;;;;;;43.40;34.50;;;;;;;;;;514565;28;1421;-81
2022/04/30 01:12:43;;;;;;;41.13;34.53;;;;;;;;;;514545;28;1561;-81
2022/04/30 01:12:58;;;;;;;40.17;34.17;;;;;;;;;;512191;28;1532;-81
2022/04/30 01:13:14;;;;;;;39.97;33.87;;;;;;;;;;510233;28;1365;-81
2022/04/30 01:13:36;;;;;;;39.47;33.70;;;;;;;;;;512177;28;1502;-81
2022/04/30 01:13:51;;;;;;;41.22;33.70;;;;;;;;;;513854;28;1550;-81
2022/04/30 01:14:07;;;;;;;41.20;33.20;;;;;;;;;;513950;28;1567;-81
2022/04/30 01:14:27;;;;;;;40.05;33.97;;;;;;;;;;514448;28;1444;-81
2022/04/30 01:14:42;;;;;;;41.03;34.90;;;;;;;;;;512257;28;1409;-81
2022/04/30 01:14:57;;;;;;;41.27;34.50;;;;;;;;;;511533;28;1567;-81
2022/04/30 01:15:13;;;;;;;41.50;33.63;;;;;;;;;;513473;28;1492;-81
2022/04/30 01:15:28;;;;;;;41.20;33.80;;;;;;;;;;513489;28;1592;-81
2022/04/30 01:15:44;;;;;;;40.08;34.38;;;;;;;;;;513795;28;1555;-81
2022/04/30 01:16:02;;;;;;;41.50;34.30;;;;;;;;;;514140;28;1956;-81
2022/04/30 01:16:18;;;;;;;44.50;34.63;;;;;;;;;;513807;28;1461;-82
2022/04/30 01:16:35;;;;;;;44.15;35.47;;;;;;;;;;514807;28;1294;-82
2022/04/30 01:16:52;;;;;;;44.50;35.97;;;;;;;;;;517939;28;1464;-81
2022/04/30 01:17:08;;;;;;;42.95;35.80;;;;;;;;;;518676;28;1604;-81
2022/04/30 01:17:24;;;;;;;40.45;34.40;;;;;;;;;;516796;28;1496;-81
2022/04/30 01:17:42;;;;;;;40.50;34.30;;;;;;;;;;514275;28;2326;-81
2022/04/30 01:17:57;;;;;;;42.90;35.15;;;;;;;;;;514902;28;1765;-81
2022/04/30 01:18:13;;;;;;;43.60;35.15;;;;;;;;;;514277;28;1520;-81
2022/04/30 01:18:28;;;;;;;41.60;34.70;;;;;;;;;;515334;28;1468;-81
2022/04/30 01:18:44;;;;;;;43.10;35.03;;;;;;;;;;514961;28;2093;-82
2022/04/30 01:19:01;;;;;;;43.87;35.43;;;;;;;;;;515190;28;1449;-81
2022/04/30 01:19:20;;;;;;;41.70;34.88;;;;;;;;;;515000;28;1985;-81
2022/04/30 01:19:38;;;;;;;43.33;35.03;;;;;;;;;;518234;28;1556;-81
2022/04/30 01:19:54;;;;;;;44.65;35.88;;;;;;;;;;518875;28;1610;-81
2022/04/30 01:20:10;;;;;;;42.50;35.17;;;;;;;;;;518707;28;1546;-81
2022/04/30 01:20:27;;;;;;;42.55;34.90;;;;;;;;;;518659;28;1523;-81
2022/04/30 01:20:50;;;;;;;42.90;35.10;;;;;;;;;;518643;28;1523;-81
2022/04/30 01:21:12;;;;;;;43.13;35.92;;;;;;;;;;518281;28;1659;-81
2022/04/30 01:21:30;;;;;;;39.45;34.55;;;;;;;;;;518139;28;1461;-81
2022/04/30 01:21:50;;;;;;;39.13;33.80;;;;;;;;;;516492;28;1471;-81
2022/04/30 01:22:10;;;;;;;39.25;33.75;;;;;;;;;;516956;28;1480;-81
2022/04/30 01:22:33;;;;;;;41.10;34.17;;;;;;;;;;514670;28;1596;-81
2022/04/30 01:23:03;;;;;;;41.58;34.53;;;;;;;;;;514971;28;1712;-81
2022/04/30 01:23:20;;;;;;;43.85;36.15;;;;;;;;;;515426;28;1526;-81
2022/04/30 01:23:36;;;;;;;42.13;35.90;;;;;;;;;;516361;28;1685;-81
2022/04/30 01:23:52;;;;;;;43.85;36.00;;;;;;;;;;516570;28;1440;-81
2022/04/30 01:24:09;;;;;;;43.67;35.33;;;;;;;;;;515913;28;1582;-81
2022/04/30 01:24:26;;;;;;;42.13;35.25;;;;;;;;;;517311;28;1528;-81
2022/04/30 01:24:41;;;;;;;42.55;35.15;;;;;;;;;;518063;28;1494;-81
2022/04/30 01:24:59;;;;;;;43.42;35.63;;;;;;;;;;518559;28;1696;-81
2022/04/30 01:25:16;;;;;;;43.60;36.55;;;;;;;;;;518168;28;1641;-81
2022/04/30 01:25:31;;;;;;;46.30;36.38;;;;;;;;;;515510;28;1394;-81
2022/04/30 01:25:48;;;;;;;45.50;35.42;;;;;;;;;;514892;28;1596;-82
2022/04/30 01:26:05;;;;;;;43.63;35.60;;;;;;;;;;513761;28;1601;-81
2022/04/30 01:26:23;;;;;;;43.72;36.05;;;;;;;;;;514661;28;1337;-81
2022/04/30 01:26:38;;;;;;;44.67;36.20;;;;;;;;;;515274;28;1325;-82
2022/04/30 01:26:55;;;;;;;44.08;35.88;;;;;;;;;;514829;28;1535;-81
2022/04/30 01:27:12;;;;;;;43.63;35.67;;;;;;;;;;514728;28;1448;-81
2022/04/30 01:27:28;;;;;;;42.22;35.30;;;;;;;;;;514656;28;1497;-81
2022/04/30 01:27:44;;;;;;;41.33;34.60;;;;;;;;;;513944;28;1693;-81
2022/04/30 01:28:01;;;;;;;42.72;34.85;;;;;;;;;;514497;28;1862;-81
2022/04/30 01:28:19;;;;;;;42.45;34.83;;;;;;;;;;515535;28;1472;-81
2022/04/30 01:28:34;;;;;;;40.85;34.40;;;;;;;;;;515686;28;1445;-81
2022/04/30 01:28:50;;;;;;;41.78;35.40;;;;;;;;;;515906;28;1535;-81
2022/04/30 01:29:06;;;;;;;43.47;36.20;;;;;;;;;;515939;28;1451;-81
2022/04/30 01:29:23;;;;;;;43.45;35.67;;;;;;;;;;513608;28;1637;-81
2022/04/30 01:29:39;;;;;;;42.33;35.85;;;;;;;;;;514485;28;1476;-81
2022/04/30 01:30:00;;;;;;;42.88;36.00;;;;;;;;;;512796;28;1392;-81
2022/04/30 01:30:17;;;;;;;42.95;35.25;;;;;;;;;;512912;28;1345;-81
2022/04/30 01:30:33;;;;;;;41.92;34.17;;;;;;;;;;510843;29;1355;-81
2022/04/30 01:30:48;;;;;;;40.50;33.97;;;;;;;;;;510546;29;1665;-81
2022/04/30 01:37:22;;;;;;;42.03;34.33;;;;;;;;;;511295;28;1409;-81
2022/04/30 01:37:24;;;;;;;47.88;38.45;;;;;;;;;;516342;28;1507;-81
2022/04/30 01:37:39;;;;;;;47.00;37.88;;;;;;;;;;516208;28;1730;-83
2022/04/30 01:37:55;;;;;;;45.37;37.60;;;;;;;;;;514461;28;1579;-83
2022/04/30 01:38:15;;;;;;;44.85;36.42;;;;;;;;;;512462;28;1709;-83
2022/04/30 01:38:31;;;;;;;41.08;34.38;;;;;;;;;;512013;28;1592;-83
2022/04/30 01:38:47;;;;;;;40.35;33.95;;;;;;;;;;511485;28;1417;-83
2022/04/30 01:39:03;;;;;;;41.65;33.85;;;;;;;;;;510963;28;1600;-83
2022/04/30 01:39:18;;;;;;;41.20;34.63;;;;;;;;;;511342;28;1655;-83
2022/04/30 01:39:34;;;;;;;42.67;36.20;;;;;;;;;;511266;28;1722;-83
2022/04/30 01:40:05;;;;;;;41.75;35.92;;;;;;;;;;512478;28;1386;-83
2022/04/30 01:40:20;;;;;;;42.03;34.45;;;;;;;;;;512648;28;1703;-83
2022/04/30 01:40:35;;;;;;;43.20;35.33;;;;;;;;;;513219;28;1473;-83
2022/04/30 01:40:51;;;;;;;43.85;36.28;;;;;;;;;;514318;28;1484;-83
2022/04/30 01:41:06;;;;;;;43.57;36.13;;;;;;;;;;514073;28;1718;-82
2022/04/30 01:41:22;;;;;;;44.77;37.03;;;;;;;;;;514496;28;1461;-83
2022/04/30 01:41:37;;;;;;;45.25;37.15;;;;;;;;;;512219;28;1492;-83
2022/04/30 01:41:53;;;;;;;42.83;36.07;;;;;;;;;;512714;28;1436;-83
2022/04/30 01:42:13;;;;;;;42.10;36.08;;;;;;;;;;512355;28;1498;-83
2022/04/30 01:42:31;;;;;;;44.33;36.40;;;;;;;;;;512339;28;1434;-83
2022/04/30 01:42:47;;;;;;;42.20;35.90;;;;;;;;;;512567;28;1649;-83
2022/04/30 01:43:05;;;;;;;42.92;36.38;;;;;;;;;;512192;28;1417;-83
2022/04/30 01:43:22;;;;;;;43.25;36.83;;;;;;;;;;512383;28;1409;-83
2022/04/30 01:43:37;;;;;;;42.47;36.13;;;;;;;;;;513338;28;1468;-83
2022/04/30 01:43:52;;;;;;;42.83;35.80;;;;;;;;;;513734;28;1700;-83
2022/04/30 01:44:09;;;;;;;41.50;35.47;;;;;;;;;;514037;28;1595;-83
2022/04/30 01:44:26;;;;;;;41.97;35.72;;;;;;;;;;513652;28;1525;-83
2022/04/30 01:44:44;;;;;;;42.03;35.78;;;;;;;;;;513762;28;1849;-83
2022/04/30 01:44:59;;;;;;;43.63;36.80;;;;;;;;;;515068;28;1376;-83
2022/04/30 01:45:16;;;;;;;43.93;37.30;;;;;;;;;;513211;28;1528;-83
2022/04/30 01:45:34;;;;;;;44.88;37.28;;;;;;;;;;512623;28;1501;-83
2022/04/30 01:45:50;;;;;;;44.78;37.05;;;;;;;;;;513185;28;1484;-83
2022/04/30 01:46:06;;;;;;;45.00;36.90;;;;;;;;;;513738;28;1377;-83
2022/04/30 01:46:21;;;;;;;43.40;35.72;;;;;;;;;;511564;28;1420;-83